Terminal Aerodrome Forecast
Issued by NWS Mt. Holly, NJ

Home | Current Version | Previous Version | Text Only | Print | Product List | Glossary On
Versions: 1 2 3 4 5 6 7 8 9 10 11 12 13 14 15
075
FTUS41 KPHI 070537
TAFTTN
TAF
KTTN 070537Z 0706/0806 00000KT P6SM FEW250
     FM071400 VRB03KT P6SM SKC
     FM072000 06006KT P6SM SCT200
     FM080500 03010KT P6SM BKN100=

USA.gov is the U.S. government's official web portal to all federal, state and local government web resources and services.